Terminal Aerodrome Forecast
Issued by NWS Omaha/Valley, NE

Home | Current Version | Previous Version | Graphics & Text | Print | Product List | Glossary On
Versions: 1 2 3 4 5 6 7 8 9 10 11 12 13 14 15 16 17 18 19 20 21 22 23 24 25 26 27 28 29 30
000
FTUS43 KOAX 021724
TAFOFK
TAF
KOFK 021724Z 0218/0318 33006KT P6SM SCT009 OVC012
      TEMPO 0218/0220 SCT012 OVC020
     FM022000 32006KT P6SM OVC025
     FM030900 VRB03KT P6SM BKN110
     FM031700 19008KT P6SM BKN070=

USA.gov is the U.S. government's official web portal to all federal, state and local government web resources and services.